sensor_id;sensor_type;location;lat;lon;timestamp;pressure;altitude;pressure_sealevel;temperature;humidity
42007;BME280;27696;42.704;23.304;2022-11-20T00:01:21;94501.97;;;27.44;33.27
42007;BME280;27696;42.704;23.304;2022-11-20T00:03:48;94527.44;;;27.37;33.79
42007;BME280;27696;42.704;23.304;2022-11-20T00:06:15;94511.22;;;29.06;31.98
42007;BME280;27696;42.704;23.304;2022-11-20T00:08:41;94526.69;;;28.02;32.83
42007;BME280;27696;42.704;23.304;2022-11-20T00:11:09;94507.09;;;26.00;35.63
42007;BME280;27696;42.704;23.304;2022-11-20T00:13:35;94511.03;;;27.02;33.32
42007;BME280;27696;42.704;23.304;2022-11-20T00:16:03;94493.16;;;28.89;30.93
42007;BME280;27696;42.704;23.304;2022-11-20T00:18:29;94503.63;;;27.84;32.22
42007;BME280;27696;42.704;23.304;2022-11-20T00:21:01;94490.72;;;28.47;31.00
42007;BME280;27696;42.704;23.304;2022-11-20T00:23:27;94490.56;;;27.92;31.75
42007;BME280;27696;42.704;23.304;2022-11-20T00:25:52;94493.63;;;29.57;30.04
42007;BME280;27696;42.704;23.304;2022-11-20T00:28:18;94517.84;;;28.71;31.41
42007;BME280;27696;42.704;23.304;2022-11-20T00:30:43;94481.28;;;27.01;32.26
42007;BME280;27696;42.704;23.304;2022-11-20T00:33:09;94514.13;;;27.93;31.58
42007;BME280;27696;42.704;23.304;2022-11-20T00:35:34;94490.50;;;28.29;30.90
42007;BME280;27696;42.704;23.304;2022-11-20T00:37:59;94495.97;;;27.61;31.92
42007;BME280;27696;42.704;23.304;2022-11-20T00:40:25;94489.75;;;27.69;31.50
42007;BME280;27696;42.704;23.304;2022-11-20T00:42:50;94494.78;;;28.69;30.64
42007;BME280;27696;42.704;23.304;2022-11-20T00:45:16;94512.50;;;28.97;29.46
42007;BME280;27696;42.704;23.304;2022-11-20T00:47:41;94546.75;;;29.48;29.45
42007;BME280;27696;42.704;23.304;2022-11-20T00:50:07;94482.25;;;28.52;30.30
42007;BME280;27696;42.704;23.304;2022-11-20T00:52:32;94493.47;;;28.39;29.83
42007;BME280;27696;42.704;23.304;2022-11-20T00:54:58;94484.84;;;28.89;30.12
42007;BME280;27696;42.704;23.304;2022-11-20T00:57:23;94517.06;;;27.88;30.92
42007;BME280;27696;42.704;23.304;2022-11-20T00:59:49;94476.19;;;27.86;30.85
42007;BME280;27696;42.704;23.304;2022-11-20T01:02:15;94482.25;;;28.37;30.42
42007;BME280;27696;42.704;23.304;2022-11-20T01:04:42;94468.97;;;28.35;30.42
42007;BME280;27696;42.704;23.304;2022-11-20T01:07:07;94494.78;;;29.87;28.62
42007;BME280;27696;42.704;23.304;2022-11-20T01:09:32;94493.66;;;29.42;29.42
42007;BME280;27696;42.704;23.304;2022-11-20T01:11:58;94492.56;;;28.52;30.19
42007;BME280;27696;42.704;23.304;2022-11-20T01:14:24;94463.69;;;28.99;29.84
42007;BME280;27696;42.704;23.304;2022-11-20T01:16:50;94484.25;;;29.45;29.46
42007;BME280;27696;42.704;23.304;2022-11-20T01:19:21;94471.59;;;28.95;30.26
42007;BME280;27696;42.704;23.304;2022-11-20T01:21:49;94449.34;;;29.57;29.50
42007;BME280;27696;42.704;23.304;2022-11-20T01:24:16;94465.66;;;29.22;29.65
42007;BME280;27696;42.704;23.304;2022-11-20T01:26:43;94485.13;;;28.16;30.99
42007;BME280;27696;42.704;23.304;2022-11-20T01:29:17;94475.63;;;28.32;30.44
42007;BME280;27696;42.704;23.304;2022-11-20T01:31:43;94464.25;;;29.70;29.52
42007;BME280;27696;42.704;23.304;2022-11-20T01:34:14;94460.44;;;30.31;27.99
42007;BME280;27696;42.704;23.304;2022-11-20T01:36:41;94455.97;;;30.86;28.29
42007;BME280;27696;42.704;23.304;2022-11-20T01:39:13;94460.09;;;30.52;28.46
42007;BME280;27696;42.704;23.304;2022-11-20T01:41:39;94392.94;;;28.19;30.02
42007;BME280;27696;42.704;23.304;2022-11-20T01:47:27;94440.34;;;29.49;29.22
42007;BME280;27696;42.704;23.304;2022-11-20T01:52:34;94448.38;;;31.12;27.67
42007;BME280;27696;42.704;23.304;2022-11-20T01:55:07;94467.25;;;30.05;27.92
42007;BME280;27696;42.704;23.304;2022-11-20T01:57:35;94467.22;;;30.38;28.09
42007;BME280;27696;42.704;23.304;2022-11-20T02:00:06;94464.56;;;30.73;27.85
42007;BME280;27696;42.704;23.304;2022-11-20T02:02:33;94477.97;;;29.93;28.17
42007;BME280;27696;42.704;23.304;2022-11-20T02:05:04;94467.13;;;31.22;27.49
42007;BME280;27696;42.704;23.304;2022-11-20T02:07:33;94477.47;;;30.27;28.13
42007;BME280;27696;42.704;23.304;2022-11-20T02:09:59;94458.56;;;30.34;27.78
42007;BME280;27696;42.704;23.304;2022-11-20T02:12:24;94443.19;;;30.15;28.17
42007;BME280;27696;42.704;23.304;2022-11-20T02:15:19;94439.34;;;29.06;28.83
42007;BME280;27696;42.704;23.304;2022-11-20T02:17:44;94447.69;;;30.03;28.33
42007;BME280;27696;42.704;23.304;2022-11-20T02:20:11;94440.16;;;27.92;30.63
42007;BME280;27696;42.704;23.304;2022-11-20T02:25:45;94442.09;;;29.70;29.18
42007;BME280;27696;42.704;23.304;2022-11-20T02:28:14;94467.25;;;30.05;28.13
42007;BME280;27696;42.704;23.304;2022-11-20T02:30:40;94469.94;;;28.92;29.50
42007;BME280;27696;42.704;23.304;2022-11-20T02:33:05;94463.84;;;28.70;29.64
42007;BME280;27696;42.704;23.304;2022-11-20T02:37:58;94474.84;;;28.16;30.49
42007;BME280;27696;42.704;23.304;2022-11-20T02:40:24;94471.22;;;29.14;29.29
42007;BME280;27696;42.704;23.304;2022-11-20T02:42:54;94482.03;;;30.33;28.13
42007;BME280;27696;42.704;23.304;2022-11-20T02:45:20;94472.59;;;29.54;28.55
42007;BME280;27696;42.704;23.304;2022-11-20T02:47:45;94484.44;;;29.47;28.93
42007;BME280;27696;42.704;23.304;2022-11-20T02:50:11;94488.50;;;28.68;29.76
42007;BME280;27696;42.704;23.304;2022-11-20T02:52:36;94498.47;;;28.56;30.74
42007;BME280;27696;42.704;23.304;2022-11-20T02:55:02;94489.00;;;28.13;30.95
42007;BME280;27696;42.704;23.304;2022-11-20T02:57:28;94502.34;;;29.15;30.13
42007;BME280;27696;42.704;23.304;2022-11-20T02:59:53;94508.03;;;29.40;29.78
42007;BME280;27696;42.704;23.304;2022-11-20T03:02:19;94512.84;;;29.16;30.15
42007;BME280;27696;42.704;23.304;2022-11-20T03:04:44;94510.81;;;29.40;30.03
42007;BME280;27696;42.704;23.304;2022-11-20T03:07:10;94515.66;;;28.78;30.91
42007;BME280;27696;42.704;23.304;2022-11-20T03:09:36;94519.09;;;29.32;30.11
42007;BME280;27696;42.704;23.304;2022-11-20T03:12:01;94525.03;;;28.75;30.96
42007;BME280;27696;42.704;23.304;2022-11-20T03:14:26;94532.91;;;28.70;30.91
42007;BME280;27696;42.704;23.304;2022-11-20T03:16:52;94514.09;;;29.54;30.13
42007;BME280;27696;42.704;23.304;2022-11-20T03:19:17;94513.31;;;28.30;31.90
42007;BME280;27696;42.704;23.304;2022-11-20T03:21:43;94517.28;;;28.65;31.07
42007;BME280;27696;42.704;23.304;2022-11-20T03:24:08;94530.16;;;29.32;30.57
42007;BME280;27696;42.704;23.304;2022-11-20T03:26:34;94514.66;;;28.44;31.05
42007;BME280;27696;42.704;23.304;2022-11-20T03:29:03;94506.06;;;28.86;31.07
42007;BME280;27696;42.704;23.304;2022-11-20T03:31:34;94508.53;;;28.22;31.59
42007;BME280;27696;42.704;23.304;2022-11-20T03:34:00;94537.56;;;29.38;30.48
42007;BME280;27696;42.704;23.304;2022-11-20T03:36:28;94539.50;;;30.24;29.30
42007;BME280;27696;42.704;23.304;2022-11-20T03:38:55;94519.50;;;28.90;30.59
42007;BME280;27696;42.704;23.304;2022-11-20T03:41:23;94536.66;;;29.04;30.54
42007;BME280;27696;42.704;23.304;2022-11-20T03:43:54;94545.63;;;28.50;31.13
42007;BME280;27696;42.704;23.304;2022-11-20T03:46:21;94539.28;;;28.26;31.20
42007;BME280;27696;42.704;23.304;2022-11-20T03:48:46;94561.31;;;29.17;30.12
42007;BME280;27696;42.704;23.304;2022-11-20T03:51:14;94557.47;;;30.56;29.02
42007;BME280;27696;42.704;23.304;2022-11-20T03:53:41;94504.63;;;30.54;28.54
42007;BME280;27696;42.704;23.304;2022-11-20T03:56:08;94545.47;;;31.30;27.63
42007;BME280;27696;42.704;23.304;2022-11-20T03:58:35;94542.47;;;31.53;27.75
42007;BME280;27696;42.704;23.304;2022-11-20T04:01:09;94541.25;;;31.82;27.12
42007;BME280;27696;42.704;23.304;2022-11-20T04:03:36;94554.97;;;31.44;27.83
42007;BME280;27696;42.704;23.304;2022-11-20T04:06:13;94551.56;;;31.71;27.46
42007;BME280;27696;42.704;23.304;2022-11-20T04:08:39;94549.59;;;31.21;28.18
42007;BME280;27696;42.704;23.304;2022-11-20T04:11:13;94569.44;;;31.17;28.05
42007;BME280;27696;42.704;23.304;2022-11-20T04:13:39;94561.16;;;29.39;29.84
42007;BME280;27696;42.704;23.304;2022-11-20T04:16:06;94521.13;;;29.16;30.23
42007;BME280;27696;42.704;23.304;2022-11-20T04:18:33;94522.97;;;29.29;29.92
42007;BME280;27696;42.704;23.304;2022-11-20T04:20:59;94468.28;;;29.76;28.84
42007;BME280;27696;42.704;23.304;2022-11-20T04:23:24;94543.84;;;30.02;29.27
42007;BME280;27696;42.704;23.304;2022-11-20T04:25:50;94531.88;;;29.92;29.06
42007;BME280;27696;42.704;23.304;2022-11-20T04:28:15;94534.56;;;31.07;28.13
42007;BME280;27696;42.704;23.304;2022-11-20T04:30:41;94550.34;;;31.22;27.59
42007;BME280;27696;42.704;23.304;2022-11-20T04:33:06;94550.06;;;29.54;29.39
42007;BME280;27696;42.704;23.304;2022-11-20T04:35:36;94548.53;;;29.84;29.04
42007;BME280;27696;42.704;23.304;2022-11-20T04:38:02;94564.56;;;29.78;29.43
42007;BME280;27696;42.704;23.304;2022-11-20T04:40:28;94552.59;;;30.24;28.59
42007;BME280;27696;42.704;23.304;2022-11-20T04:42:54;94535.28;;;28.51;30.78
42007;BME280;27696;42.704;23.304;2022-11-20T04:45:20;94521.34;;;30.39;28.49
42007;BME280;27696;42.704;23.304;2022-11-20T04:47:46;94536.09;;;30.75;28.01
42007;BME280;27696;42.704;23.304;2022-11-20T04:50:11;94544.91;;;31.06;27.95
42007;BME280;27696;42.704;23.304;2022-11-20T04:52:37;94541.59;;;30.49;28.35
42007;BME280;27696;42.704;23.304;2022-11-20T04:55:03;94535.09;;;30.21;29.23
42007;BME280;27696;42.704;23.304;2022-11-20T04:57:28;94525.91;;;29.55;29.79
42007;BME280;27696;42.704;23.304;2022-11-20T04:59:53;94511.31;;;29.62;29.35
42007;BME280;27696;42.704;23.304;2022-11-20T05:02:20;94504.34;;;30.68;28.38
42007;BME280;27696;42.704;23.304;2022-11-20T05:04:45;94476.16;;;29.95;28.62
42007;BME280;27696;42.704;23.304;2022-11-20T05:07:11;94504.19;;;30.00;28.80
42007;BME280;27696;42.704;23.304;2022-11-20T05:09:36;94507.34;;;29.88;29.12
42007;BME280;27696;42.704;23.304;2022-11-20T05:12:01;94477.56;;;30.04;28.51
42007;BME280;27696;42.704;23.304;2022-11-20T05:14:27;94502.66;;;30.06;28.72
42007;BME280;27696;42.704;23.304;2022-11-20T05:16:52;94494.44;;;29.03;30.11
42007;BME280;27696;42.704;23.304;2022-11-20T05:19:18;94491.63;;;29.99;28.96
42007;BME280;27696;42.704;23.304;2022-11-20T05:21:43;94477.44;;;28.37;30.41
42007;BME280;27696;42.704;23.304;2022-11-20T05:24:09;94509.94;;;28.76;30.58
42007;BME280;27696;42.704;23.304;2022-11-20T05:26:34;94506.97;;;29.04;30.14
42007;BME280;27696;42.704;23.304;2022-11-20T05:28:59;94496.28;;;29.09;29.86
42007;BME280;27696;42.704;23.304;2022-11-20T05:31:25;94497.72;;;29.41;29.56
42007;BME280;27696;42.704;23.304;2022-11-20T05:33:51;94502.69;;;29.50;29.86
42007;BME280;27696;42.704;23.304;2022-11-20T05:36:17;94503.94;;;30.46;28.37
42007;BME280;27696;42.704;23.304;2022-11-20T05:38:43;94508.91;;;29.58;29.79
42007;BME280;27696;42.704;23.304;2022-11-20T05:41:14;94505.19;;;30.20;28.92
42007;BME280;27696;42.704;23.304;2022-11-20T05:43:42;94510.16;;;31.05;27.97
42007;BME280;27696;42.704;23.304;2022-11-20T05:46:10;94508.66;;;30.86;28.18
42007;BME280;27696;42.704;23.304;2022-11-20T05:48:36;94518.28;;;30.52;28.70
42007;BME280;27696;42.704;23.304;2022-11-20T05:51:05;94521.25;;;30.21;29.16
42007;BME280;27696;42.704;23.304;2022-11-20T05:53:32;94523.81;;;29.78;29.89
42007;BME280;27696;42.704;23.304;2022-11-20T05:56:03;94510.94;;;30.55;28.81
42007;BME280;27696;42.704;23.304;2022-11-20T05:58:29;94515.50;;;30.52;29.44
42007;BME280;27696;42.704;23.304;2022-11-20T06:01:06;94512.41;;;30.56;29.70
42007;BME280;27696;42.704;23.304;2022-11-20T06:03:32;94502.22;;;29.77;30.42
42007;BME280;27696;42.704;23.304;2022-11-20T06:06:03;94531.63;;;30.46;29.91
42007;BME280;27696;42.704;23.304;2022-11-20T06:08:30;94538.06;;;29.52;30.84
42007;BME280;27696;42.704;23.304;2022-11-20T06:10:56;94545.72;;;30.00;30.49
42007;BME280;27696;42.704;23.304;2022-11-20T06:13:22;94536.56;;;30.22;30.36
42007;BME280;27696;42.704;23.304;2022-11-20T06:15:51;94528.00;;;29.87;30.81
42007;BME280;27696;42.704;23.304;2022-11-20T06:18:18;94522.63;;;30.05;30.58
42007;BME280;27696;42.704;23.304;2022-11-20T06:20:44;94513.53;;;29.63;31.04
42007;BME280;27696;42.704;23.304;2022-11-20T06:23:09;94524.22;;;30.56;29.77
42007;BME280;27696;42.704;23.304;2022-11-20T06:25:42;94500.78;;;30.75;29.25
42007;BME280;27696;42.704;23.304;2022-11-20T06:28:08;94516.84;;;31.02;29.23
42007;BME280;27696;42.704;23.304;2022-11-20T06:30:34;94529.94;;;30.84;29.33
42007;BME280;27696;42.704;23.304;2022-11-20T06:32:59;94544.69;;;30.20;29.59
42007;BME280;27696;42.704;23.304;2022-11-20T06:35:24;94539.72;;;30.60;29.50
42007;BME280;27696;42.704;23.304;2022-11-20T06:37:50;94530.59;;;30.92;29.27
42007;BME280;27696;42.704;23.304;2022-11-20T06:40:15;94532.25;;;30.70;29.17
42007;BME280;27696;42.704;23.304;2022-11-20T06:42:41;94545.03;;;30.91;29.07
42007;BME280;27696;42.704;23.304;2022-11-20T06:45:07;94559.25;;;31.20;29.11
42007;BME280;27696;42.704;23.304;2022-11-20T06:47:33;94568.16;;;31.11;28.77
42007;BME280;27696;42.704;23.304;2022-11-20T06:49:59;94551.31;;;30.66;29.12
42007;BME280;27696;42.704;23.304;2022-11-20T06:52:24;94549.13;;;31.32;28.56
42007;BME280;27696;42.704;23.304;2022-11-20T06:54:50;94553.50;;;30.34;29.59
42007;BME280;27696;42.704;23.304;2022-11-20T06:57:15;94546.59;;;30.76;29.08
42007;BME280;27696;42.704;23.304;2022-11-20T06:59:40;94546.59;;;30.76;29.13
42007;BME280;27696;42.704;23.304;2022-11-20T07:02:09;94519.03;;;31.29;28.60
42007;BME280;27696;42.704;23.304;2022-11-20T07:04:35;94531.19;;;30.24;29.75
42007;BME280;27696;42.704;23.304;2022-11-20T07:07:01;94533.41;;;30.84;29.10
42007;BME280;27696;42.704;23.304;2022-11-20T07:09:26;94586.19;;;30.36;29.50
42007;BME280;27696;42.704;23.304;2022-11-20T07:11:52;94582.53;;;29.61;30.39
42007;BME280;27696;42.704;23.304;2022-11-20T07:14:17;94570.34;;;28.95;31.20
42007;BME280;27696;42.704;23.304;2022-11-20T07:16:42;94576.19;;;29.84;30.26
42007;BME280;27696;42.704;23.304;2022-11-20T07:19:08;94583.44;;;29.48;30.81
42007;BME280;27696;42.704;23.304;2022-11-20T07:21:33;94591.31;;;30.80;29.17
42007;BME280;27696;42.704;23.304;2022-11-20T07:23:59;94567.44;;;30.60;29.26
42007;BME280;27696;42.704;23.304;2022-11-20T07:26:24;94557.25;;;30.21;29.43
42007;BME280;27696;42.704;23.304;2022-11-20T07:28:49;94565.78;;;30.56;28.92
42007;BME280;27696;42.704;23.304;2022-11-20T07:31:15;94585.75;;;30.47;28.94
42007;BME280;27696;42.704;23.304;2022-11-20T07:33:40;94589.00;;;30.94;28.70
42007;BME280;27696;42.704;23.304;2022-11-20T07:36:06;94576.63;;;31.21;28.21
42007;BME280;27696;42.704;23.304;2022-11-20T07:38:31;94588.84;;;31.17;28.19
42007;BME280;27696;42.704;23.304;2022-11-20T07:40:58;94594.53;;;30.20;29.21
42007;BME280;27696;42.704;23.304;2022-11-20T07:43:26;94591.19;;;30.30;29.29
42007;BME280;27696;42.704;23.304;2022-11-20T07:45:55;94583.13;;;30.57;29.05
42007;BME280;27696;42.704;23.304;2022-11-20T07:48:20;94561.16;;;29.46;30.30
42007;BME280;27696;42.704;23.304;2022-11-20T07:50:45;94552.91;;;30.44;29.06
42007;BME280;27696;42.704;23.304;2022-11-20T07:53:11;94578.41;;;29.86;29.62
42007;BME280;27696;42.704;23.304;2022-11-20T07:55:37;94576.09;;;30.89;29.04
42007;BME280;27696;42.704;23.304;2022-11-20T07:58:03;94583.75;;;30.40;29.15
42007;BME280;27696;42.704;23.304;2022-11-20T08:00:28;94535.53;;;29.38;30.35
42007;BME280;27696;42.704;23.304;2022-11-20T08:02:54;94572.38;;;30.20;29.87
42007;BME280;27696;42.704;23.304;2022-11-20T08:05:19;94566.28;;;30.63;29.12
42007;BME280;27696;42.704;23.304;2022-11-20T08:07:45;94579.88;;;30.76;29.04
42007;BME280;27696;42.704;23.304;2022-11-20T08:10:12;94573.97;;;30.39;28.96
42007;BME280;27696;42.704;23.304;2022-11-20T08:12:48;94579.44;;;30.87;28.95
42007;BME280;27696;42.704;23.304;2022-11-20T08:15:33;94543.69;;;29.92;29.70
42007;BME280;27696;42.704;23.304;2022-11-20T08:18:11;94574.75;;;29.68;30.19
42007;BME280;27696;42.704;23.304;2022-11-20T08:20:37;94564.00;;;29.87;29.99
42007;BME280;27696;42.704;23.304;2022-11-20T08:23:05;94565.78;;;30.49;28.95
42007;BME280;27696;42.704;23.304;2022-11-20T08:25:32;94582.53;;;30.66;28.75
42007;BME280;27696;42.704;23.304;2022-11-20T08:27:59;94596.59;;;30.61;29.21
42007;BME280;27696;42.704;23.304;2022-11-20T08:30:25;94605.81;;;30.22;29.83
42007;BME280;27696;42.704;23.304;2022-11-20T08:32:50;94555.59;;;30.51;29.12
42007;BME280;27696;42.704;23.304;2022-11-20T08:35:16;94603.09;;;30.55;29.04
42007;BME280;27696;42.704;23.304;2022-11-20T08:37:41;94595.31;;;30.13;29.93
42007;BME280;27696;42.704;23.304;2022-11-20T08:40:10;94598.56;;;30.27;29.73
42007;BME280;27696;42.704;23.304;2022-11-20T08:42:36;94606.81;;;30.02;30.37
42007;BME280;27696;42.704;23.304;2022-11-20T08:45:02;94616.75;;;30.13;29.50
42007;BME280;27696;42.704;23.304;2022-11-20T08:47:28;94637.13;;;29.53;30.75
42007;BME280;27696;42.704;23.304;2022-11-20T08:49:53;94643.44;;;28.70;31.60
42007;BME280;27696;42.704;23.304;2022-11-20T08:52:19;94611.19;;;27.26;35.58
42007;BME280;27696;42.704;23.304;2022-11-20T08:54:44;94632.22;;;27.37;36.44
42007;BME280;27696;42.704;23.304;2022-11-20T08:57:09;94606.78;;;28.10;35.67
42007;BME280;27696;42.704;23.304;2022-11-20T08:59:35;94626.06;;;27.44;36.96
42007;BME280;27696;42.704;23.304;2022-11-20T09:02:00;94623.13;;;28.52;34.99
42007;BME280;27696;42.704;23.304;2022-11-20T09:04:26;94636.66;;;28.27;35.43
42007;BME280;27696;42.704;23.304;2022-11-20T09:06:51;94607.03;;;28.95;34.73
42007;BME280;27696;42.704;23.304;2022-11-20T09:09:17;94624.94;;;29.56;33.49
42007;BME280;27696;42.704;23.304;2022-11-20T09:11:43;94643.38;;;28.47;35.46
42007;BME280;27696;42.704;23.304;2022-11-20T09:14:09;94646.69;;;29.83;33.98
42007;BME280;27696;42.704;23.304;2022-11-20T09:16:34;94620.34;;;29.51;34.14
42007;BME280;27696;42.704;23.304;2022-11-20T09:19:00;94606.88;;;29.09;34.38
42007;BME280;27696;42.704;23.304;2022-11-20T09:21:25;94657.22;;;26.97;41.79
42007;BME280;27696;42.704;23.304;2022-11-20T09:23:51;94651.16;;;27.62;38.74
42007;BME280;27696;42.704;23.304;2022-11-20T09:26:16;94632.81;;;27.43;36.48
42007;BME280;27696;42.704;23.304;2022-11-20T09:28:41;94620.00;;;27.75;36.31
42007;BME280;27696;42.704;23.304;2022-11-20T09:31:09;94629.22;;;28.51;35.30
42007;BME280;27696;42.704;23.304;2022-11-20T09:33:35;94641.63;;;27.21;36.18
42007;BME280;27696;42.704;23.304;2022-11-20T09:36:01;94632.16;;;27.29;36.83
42007;BME280;27696;42.704;23.304;2022-11-20T09:38:26;94596.59;;;28.05;36.08
42007;BME280;27696;42.704;23.304;2022-11-20T09:41:03;94557.44;;;28.66;34.71
42007;BME280;27696;42.704;23.304;2022-11-20T09:43:37;94593.03;;;28.93;35.08
42007;BME280;27696;42.704;23.304;2022-11-20T09:46:14;94596.88;;;28.90;35.31
42007;BME280;27696;42.704;23.304;2022-11-20T09:48:54;94595.44;;;29.59;34.37
42007;BME280;27696;42.704;23.304;2022-11-20T09:56:45;94579.88;;;28.70;36.74
42007;BME280;27696;42.704;23.304;2022-11-20T09:59:39;94584.16;;;28.71;37.36
42007;BME280;27696;42.704;23.304;2022-11-20T10:02:26;94577.91;;;28.79;37.79
42007;BME280;27696;42.704;23.304;2022-11-20T10:05:09;94561.00;;;27.86;38.85
42007;BME280;27696;42.704;23.304;2022-11-20T10:08:05;94572.00;;;29.60;36.82
42007;BME280;27696;42.704;23.304;2022-11-20T10:10:36;94574.00;;;29.75;35.94
42007;BME280;27696;42.704;23.304;2022-11-20T10:16:22;94554.09;;;29.69;34.81
42007;BME280;27696;42.704;23.304;2022-11-20T10:30:18;94566.69;;;29.15;35.09
42007;BME280;27696;42.704;23.304;2022-11-20T10:32:49;94577.19;;;30.20;33.44
42007;BME280;27696;42.704;23.304;2022-11-20T10:35:25;94573.13;;;29.18;35.44
42007;BME280;27696;42.704;23.304;2022-11-20T10:37:58;94573.25;;;29.74;34.46
42007;BME280;27696;42.704;23.304;2022-11-20T10:43:07;94583.09;;;28.22;37.17
42007;BME280;27696;42.704;23.304;2022-11-20T10:45:57;94579.56;;;29.13;36.00
42007;BME280;27696;42.704;23.304;2022-11-20T10:48:25;94590.13;;;27.58;38.24
42007;BME280;27696;42.704;23.304;2022-11-20T10:56:38;94572.03;;;28.98;35.63
42007;BME280;27696;42.704;23.304;2022-11-20T11:02:18;94585.13;;;27.93;37.87
42007;BME280;27696;42.704;23.304;2022-11-20T11:04:47;94603.31;;;27.30;38.02
42007;BME280;27696;42.704;23.304;2022-11-20T11:07:15;94661.41;;;26.02;39.76
42007;BME280;27696;42.704;23.304;2022-11-20T11:09:47;94708.53;;;23.02;46.70
42007;BME280;27696;42.704;23.304;2022-11-20T11:12:13;94669.50;;;21.67;47.67
42007;BME280;27696;42.704;23.304;2022-11-20T11:14:50;94652.97;;;22.12;49.87
42007;BME280;27696;42.704;23.304;2022-11-20T11:20:16;94611.97;;;22.06;47.55
42007;BME280;27696;42.704;23.304;2022-11-20T11:25:39;94627.97;;;22.44;53.07
42007;BME280;27696;42.704;23.304;2022-11-20T11:28:21;94612.25;;;22.03;51.28
42007;BME280;27696;42.704;23.304;2022-11-20T11:30:47;94589.13;;;21.98;46.47
42007;BME280;27696;42.704;23.304;2022-11-20T11:35:50;94590.09;;;22.60;48.53
42007;BME280;27696;42.704;23.304;2022-11-20T11:38:27;94582.94;;;22.45;50.18
42007;BME280;27696;42.704;23.304;2022-11-20T11:40:54;94567.94;;;22.57;52.71
42007;BME280;27696;42.704;23.304;2022-11-20T11:43:23;94594.19;;;23.08;51.26
42007;BME280;27696;42.704;23.304;2022-11-20T11:51:45;94601.88;;;23.40;50.28
42007;BME280;27696;42.704;23.304;2022-11-20T11:56:53;94568.53;;;22.45;45.96
42007;BME280;27696;42.704;23.304;2022-11-20T11:59:33;94580.84;;;23.73;46.86
42007;BME280;27696;42.704;23.304;2022-11-20T12:02:19;94591.84;;;24.17;50.56
42007;BME280;27696;42.704;23.304;2022-11-20T12:04:56;94597.88;;;23.91;48.04
42007;BME280;27696;42.704;23.304;2022-11-20T12:10:43;94597.97;;;22.69;45.16
42007;BME280;27696;42.704;23.304;2022-11-20T12:13:36;94588.25;;;23.34;50.62
42007;BME280;27696;42.704;23.304;2022-11-20T12:16:05;94586.91;;;23.91;44.85
42007;BME280;27696;42.704;23.304;2022-11-20T12:18:31;94563.06;;;22.75;47.34
42007;BME280;27696;42.704;23.304;2022-11-20T12:30:07;94589.53;;;23.28;43.80
42007;BME280;27696;42.704;23.304;2022-11-20T12:32:16;94606.56;;;23.21;47.18
42007;BME280;27696;42.704;23.304;2022-11-20T13:01:45;94553.03;;;22.11;48.75
42007;BME280;27696;42.704;23.304;2022-11-20T13:06:50;94532.44;;;21.40;49.77
42007;BME280;27696;42.704;23.304;2022-11-20T13:09:18;94531.97;;;22.42;49.30
42007;BME280;27696;42.704;23.304;2022-11-20T13:12:16;94531.44;;;24.36;42.49
42007;BME280;27696;42.704;23.304;2022-11-20T13:14:53;94543.66;;;25.60;43.01
42007;BME280;27696;42.704;23.304;2022-11-20T13:20:06;94548.38;;;24.73;41.27
42007;BME280;27696;42.704;23.304;2022-11-20T13:25:10;94556.03;;;25.67;40.53
42007;BME280;27696;42.704;23.304;2022-11-20T13:27:35;94519.50;;;24.53;40.56
42007;BME280;27696;42.704;23.304;2022-11-20T13:30:17;94553.06;;;24.78;39.80
42007;BME280;27696;42.704;23.304;2022-11-20T13:35:32;94550.69;;;25.01;40.96
42007;BME280;27696;42.704;23.304;2022-11-20T13:38:13;94552.19;;;26.10;38.57
42007;BME280;27696;42.704;23.304;2022-11-20T13:43:35;94554.13;;;25.21;38.57
42007;BME280;27696;42.704;23.304;2022-11-20T13:46:08;94534.13;;;25.74;38.38
42007;BME280;27696;42.704;23.304;2022-11-20T13:48:39;94518.09;;;24.79;39.14
42007;BME280;27696;42.704;23.304;2022-11-20T13:57:19;94536.47;;;26.32;37.34
42007;BME280;27696;42.704;23.304;2022-11-20T14:02:18;94574.59;;;25.33;39.48
42007;BME280;27696;42.704;23.304;2022-11-20T14:04:56;94533.25;;;26.41;37.23
42007;BME280;27696;42.704;23.304;2022-11-20T14:07:27;94576.16;;;26.71;37.59
42007;BME280;27696;42.704;23.304;2022-11-20T14:09:57;94560.41;;;25.02;40.54
42007;BME280;27696;42.704;23.304;2022-11-20T14:12:33;94569.34;;;25.89;39.50
42007;BME280;27696;42.704;23.304;2022-11-20T14:14:59;94525.50;;;25.43;40.02
42007;BME280;27696;42.704;23.304;2022-11-20T14:17:33;94572.94;;;25.98;39.75
42007;BME280;27696;42.704;23.304;2022-11-20T14:20:05;94574.59;;;26.27;39.26
42007;BME280;27696;42.704;23.304;2022-11-20T14:22:31;94570.72;;;25.83;39.93
42007;BME280;27696;42.704;23.304;2022-11-20T14:27:39;94543.09;;;26.02;38.54
42007;BME280;27696;42.704;23.304;2022-11-20T14:30:05;94561.31;;;25.91;37.49
42007;BME280;27696;42.704;23.304;2022-11-20T14:32:31;94565.78;;;25.81;37.86
42007;BME280;27696;42.704;23.304;2022-11-20T14:35:07;94578.25;;;25.95;37.69
42007;BME280;27696;42.704;23.304;2022-11-20T14:37:37;94588.63;;;25.62;37.49
42007;BME280;27696;42.704;23.304;2022-11-20T14:40:21;94583.75;;;25.95;37.45
42007;BME280;27696;42.704;23.304;2022-11-20T14:42:47;94583.22;;;25.57;37.52
42007;BME280;27696;42.704;23.304;2022-11-20T14:45:12;94570.22;;;25.71;36.91
42007;BME280;27696;42.704;23.304;2022-11-20T14:47:39;94556.72;;;26.07;36.92
42007;BME280;27696;42.704;23.304;2022-11-20T14:50:14;94569.75;;;26.20;36.59
42007;BME280;27696;42.704;23.304;2022-11-20T14:55:32;94578.16;;;26.70;35.04
42007;BME280;27696;42.704;23.304;2022-11-20T14:58:02;94546.34;;;25.52;36.72
42007;BME280;27696;42.704;23.304;2022-11-20T15:00:29;94569.16;;;25.74;36.74
42007;BME280;27696;42.704;23.304;2022-11-20T15:02:55;94581.88;;;25.63;37.06